Time;durP1;ratioP1;P1;durP2;ratioP2;P2;SDS_P1;SDS_P2;PMS_P1;PMS_P2;Temp;Humidity;BMP_temperature;BMP_pressure;BME280_temperature;BME280_humidity;BME280_pressure;Samples;Min_cycle;Max_cycle;Signal;HPM_P1;HPM_P2
2022/06/23 00:05:00;;;;;;;6.00;2.95;;;;;;;19.44;73.23;99078.75;10058717;29;20065;-74
2022/06/23 00:10:16;;;;;;;4.07;2.72;;;;;;;19.35;73.01;99070.34;10063341;29;20049;-75
2022/06/23 00:15:35;;;;;;;4.20;2.80;;;;;;;18.93;74.25;99013.69;10063263;29;20045;-75
2022/06/23 00:21:12;;;;;;;3.78;2.60;;;;;;;19.67;74.65;99117.22;10063054;29;20827;-75
2022/06/23 00:26:15;;;;;;;9.63;3.40;;;;;;;19.48;73.18;99122.97;10062383;29;20049;-74
2022/06/23 00:31:30;;;;;;;4.80;3.17;;;;;;;19.39;76.04;99130.69;10062220;29;20038;-74
2022/06/23 00:36:36;;;;;;;4.65;2.92;;;;;;;19.34;74.43;99116.38;10062285;29;20045;-75
2022/06/23 00:41:37;;;;;;;6.35;2.90;;;;;;;19.05;74.74;99092.41;10062747;29;20077;-74
2022/06/23 00:46:47;;;;;;;22.45;5.18;;;;;;;19.18;76.12;99130.78;10062629;29;20059;-74
2022/06/23 00:51:56;;;;;;;23.17;4.18;;;;;;;18.97;76.97;99138.63;10075913;29;20512;-75
2022/06/23 00:57:27;;;;;;;15.18;4.07;;;;;;;18.68;77.73;99106.50;10099881;29;20072;-75
2022/06/23 01:02:42;;;;;;;29.17;5.15;;;;;;;18.55;78.27;99136.47;10098255;29;20045;-74
2022/06/23 01:07:57;;;;;;;45.22;6.05;;;;;;;18.55;76.59;99162.56;10099420;29;20053;-74
2022/06/23 01:13:29;;;;;;;11.88;4.13;;;;;;;18.52;80.29;99161.19;10098325;29;20414;-74
2022/06/23 01:18:38;;;;;;;38.95;6.60;;;;;;;18.43;79.19;99168.06;10098048;29;20041;-74
2022/06/23 01:23:56;;;;;;;35.00;5.70;;;;;;;18.41;80.22;99184.41;10098835;29;20466;-75
2022/06/23 01:29:48;;;;;;;21.83;4.93;;;;;;;18.38;79.25;99182.22;10099006;29;20052;-74
2022/06/23 01:34:54;;;;;;;29.17;5.70;;;;;;;18.17;79.28;99188.38;10138667;29;20049;-75
2022/06/23 01:39:55;;;;;;;64.13;7.70;;;;;;;17.33;78.81;99073.66;10098538;29;20048;-75
2022/06/23 01:45:08;;;;;;;17.80;4.82;;;;;;;18.02;79.24;99195.13;10097795;29;20063;-75
2022/06/23 01:50:41;;;;;;;84.40;10.35;;;;;;;17.15;80.85;99047.06;10098300;29;20045;-75
2022/06/23 01:56:13;;;;;;;19.90;4.97;;;;;;;18.17;81.45;99194.56;10097409;29;20057;-75
2022/06/23 02:01:23;;;;;;;34.60;5.32;;;;;;;17.45;80.96;99085.13;10098594;29;20068;-75
2022/06/23 02:06:38;;;;;;;12.27;4.30;;;;;;;17.69;80.61;99107.28;10096903;29;20060;-74
2022/06/23 02:11:48;;;;;;;128.80;10.80;;;;;;;18.39;79.95;99210.72;10097425;29;20420;-75
2022/06/23 02:17:12;;;;;;;238.95;15.52;;;;;;;18.29;80.59;99178.34;10095436;29;20458;-75
2022/06/23 02:22:16;;;;;;;19.63;5.07;;;;;;;18.41;79.22;99203.25;10095706;29;20049;-74
2022/06/23 02:27:32;;;;;;;10.10;3.72;;;;;;;18.11;80.69;99168.66;10096568;29;20533;-75
2022/06/23 02:33:07;;;;;;;19.80;4.53;;;;;;;18.42;82.04;99209.44;10096072;29;20073;-75
2022/06/23 02:38:25;;;;;;;69.75;6.65;;;;;;;18.53;81.22;99218.47;10095447;29;20048;-74
2022/06/23 02:43:48;;;;;;;10.75;3.95;;;;;;;18.64;80.94;99212.97;10095218;29;20053;-74
2022/06/23 02:48:58;;;;;;;7.25;3.72;;;;;;;18.10;79.98;99097.19;10095627;29;20049;-74
2022/06/23 02:54:26;;;;;;;23.20;5.22;;;;;;;18.53;80.13;99127.03;10095661;29;20041;-74
2022/06/23 02:59:33;;;;;;;35.30;5.85;;;;;;;19.33;78.97;99222.47;10095143;29;20082;-74
2022/06/23 03:04:59;;;;;;;7.53;4.25;;;;;;;19.50;78.74;99195.44;10095135;29;20399;-75
2022/06/23 03:10:39;;;;;;;14.95;4.35;;;;;;;19.09;77.22;99084.66;10094877;29;20049;-75
2022/06/23 03:15:50;;;;;;;17.40;5.50;;;;;;;20.28;76.21;99202.06;10142548;29;20064;-74
2022/06/23 03:21:02;;;;;;;12.27;4.85;;;;;;;21.01;74.02;99241.06;10094595;29;20117;-75
2022/06/23 03:26:17;;;;;;;7.15;4.93;;;;;;;21.79;70.15;99232.94;10095613;29;20049;-76
2022/06/23 03:31:26;;;;;;;5.97;4.43;;;;;;;22.74;67.08;99243.97;10095097;29;20049;-75
2022/06/23 03:36:32;;;;;;;12.60;5.20;;;;;;;24.50;62.22;99235.38;10095165;29;20106;-75
2022/06/23 03:41:42;;;;;;;8.20;4.18;;;;;;;25.85;56.21;99211.69;10100873;29;20066;-77
2022/06/23 03:46:49;;;;;;;9.70;3.47;;;;;;;27.19;52.07;99249.84;10101812;29;20049;-76
2022/06/23 03:51:59;;;;;;;38.88;6.20;;;;;;;28.22;49.84;99249.13;10099667;29;20139;-76
2022/06/23 03:57:12;;;;;;;5.65;3.08;;;;;;;27.57;49.29;99246.81;10102916;29;20047;-76
2022/06/23 04:02:14;;;;;;;;;;;;;;;28.94;49.39;99244.50;10103418;29;20506;-75
2022/06/23 04:07:29;;;;;;;22.77;3.70;;;;;;;29.23;46.18;99238.50;10102748;29;19972;-76
2022/06/23 04:12:33;;;;;;;12.70;1.88;;;;;;;29.13;44.46;99247.78;10101945;29;20088;-76
2022/06/23 04:17:45;;;;;;;4.85;2.10;;;;;;;27.60;41.94;99178.00;10097418;29;20510;-75
2022/06/23 04:22:46;;;;;;;6.20;2.00;;;;;;;26.31;45.41;99266.16;10096678;29;20045;-75
2022/06/23 04:27:59;;;;;;;4.90;1.77;;;;;;;24.51;46.56;99158.25;10097393;29;20386;-75
2022/06/23 04:33:04;;;;;;;6.75;2.10;;;;;;;24.32;48.22;99263.19;10099895;29;20088;-74
2022/06/23 04:38:10;;;;;;;3.60;2.00;;;;;;;23.86;48.73;99268.97;10097231;29;20426;-75
2022/06/23 04:43:35;;;;;;;4.88;2.10;;;;;;;23.66;49.83;99262.56;10099316;29;20139;-73
2022/06/23 04:48:39;;;;;;;4.43;1.98;;;;;;;23.69;50.24;99269.31;10123600;29;20052;-75
2022/06/23 04:53:49;;;;;;;6.95;2.10;;;;;;;24.05;49.43;99272.66;10097281;29;20056;-74
2022/06/23 04:58:55;;;;;;;6.38;2.17;;;;;;;24.85;47.72;99265.94;10096589;29;20044;-75
2022/06/23 05:03:58;;;;;;;3.78;1.90;;;;;;;25.11;45.94;99268.38;10098645;29;20057;-73
2022/06/23 05:09:11;;;;;;;18.50;1.80;;;;;;;24.71;45.31;99161.81;10100330;29;20049;-75
2022/06/23 05:14:41;;;;;;;2.85;1.33;;;;;;;25.89;43.50;99292.41;10098806;29;20514;-75
2022/06/23 05:19:42;;;;;;;8.90;1.40;;;;;;;25.48;43.43;99252.16;10099432;29;20052;-75
2022/06/23 05:24:46;;;;;;;3.60;1.35;;;;;;;25.62;42.25;99235.91;10098357;29;20045;-75
2022/06/23 05:30:25;;;;;;;7.15;1.50;;;;;;;25.76;42.35;99170.72;10098026;29;20041;-75
2022/06/23 05:35:37;;;;;;;5.22;1.58;;;;;;;26.71;41.25;99269.28;10098297;29;20128;-74
2022/06/23 05:40:43;;;;;;;4.03;1.58;;;;;;;26.50;40.96;99268.03;10099270;29;20072;-75
2022/06/23 05:45:51;;;;;;;4.32;1.70;;;;;;;26.12;41.48;99270.84;10097917;29;20060;-75
2022/06/23 05:51:24;;;;;;;7.20;2.15;;;;;;;26.29;42.83;99273.00;10098886;29;20045;-75
2022/06/23 05:56:49;;;;;;;3.97;1.88;;;;;;;26.37;43.18;99273.13;10097201;29;20055;-75
2022/06/23 06:02:03;;;;;;;4.55;1.77;;;;;;;25.60;42.16;99163.88;10097616;29;20128;-73
2022/06/23 06:07:05;;;;;;;5.22;1.80;;;;;;;26.25;41.58;99264.63;10097877;29;20071;-74
2022/06/23 06:12:20;;;;;;;4.15;1.60;;;;;;;26.78;39.84;99255.28;10096750;29;20041;-73
2022/06/23 06:17:25;;;;;;;11.57;1.63;;;;;;;27.07;39.33;99242.16;10096748;29;20512;-75
2022/06/23 06:22:53;;;;;;;3.03;1.50;;;;;;;27.58;38.11;99251.16;10092184;29;20044;-74
2022/06/23 06:27:58;;;;;;;4.78;1.60;;;;;;;27.57;38.07;99227.72;10090071;29;20064;-75
2022/06/23 06:32:59;;;;;;;7.47;1.88;;;;;;;27.77;37.35;99243.63;10088032;29;20568;-74
2022/06/23 06:38:07;;;;;;;7.43;1.60;;;;;;;28.07;36.66;99245.97;10091944;29;20084;-73
2022/06/23 06:43:19;;;;;;;7.63;1.85;;;;;;;28.15;37.34;99243.31;10089378;29;20087;-75
2022/06/23 06:48:25;;;;;;;4.18;1.40;;;;;;;27.95;35.33;99247.34;10091248;29;20041;-75
2022/06/23 06:53:40;;;;;;;5.63;1.67;;;;;;;27.90;35.59;99257.56;10089752;29;20071;-77
2022/06/23 06:59:04;;;;;;;3.72;1.85;;;;;;;28.38;35.14;99262.38;10088865;29;20037;-74
2022/06/23 07:04:11;;;;;;;4.40;1.55;;;;;;;28.31;34.34;99272.94;10088553;29;20495;-73
2022/06/23 07:09:38;;;;;;;4.15;1.80;;;;;;;28.58;33.33;99286.47;10085903;29;20044;-72
2022/06/23 07:15:21;;;;;;;9.35;5.57;;;;;;;28.77;33.44;99275.31;10055892;29;20078;-75
2022/06/23 07:20:50;;;;;;;13.23;2.90;;;;;;;28.82;34.38;99260.69;10055540;29;20046;-72
2022/06/23 07:25:57;;;;;;;3.85;1.75;;;;;;;28.90;33.73;99271.69;10055532;29;20184;-72
2022/06/23 07:31:04;;;;;;;10.35;2.60;;;;;;;28.88;33.75;99226.63;10056309;29;20049;-73
2022/06/23 07:36:23;;;;;;;4.65;2.33;;;;;;;27.90;32.65;99070.03;10056873;29;20038;-72
2022/06/23 07:41:40;;;;;;;5.38;1.65;;;;;;;28.67;32.30;99199.06;10055505;29;20041;-71
2022/06/23 07:46:41;;;;;;;4.97;1.60;;;;;;;28.66;33.33;99164.69;10054955;29;20057;-72
2022/06/23 07:51:42;;;;;;;3.40;1.92;;;;;;;28.64;33.43;99166.91;10054752;29;20050;-73
2022/06/23 07:56:43;;;;;;;4.30;1.60;;;;;;;28.28;32.61;99154.22;10055205;29;20092;-72
2022/06/23 08:02:19;;;;;;;8.63;1.92;;;;;;;28.89;33.72;99266.50;10055679;29;20041;-72
2022/06/23 08:07:21;;;;;;;3.30;1.70;;;;;;;28.61;32.90;99239.41;10053140;29;20054;-72
2022/06/23 08:12:56;;;;;;;5.38;1.52;;;;;;;28.42;32.59;99247.03;10055752;29;20416;-72
2022/06/23 08:18:26;;;;;;;5.93;1.63;;;;;;;28.43;33.48;99271.28;10055021;29;20049;-72
2022/06/23 08:23:33;;;;;;;4.38;1.42;;;;;;;28.21;33.17;99236.59;10055384;29;20514;-72
2022/06/23 08:28:34;;;;;;;4.75;1.38;;;;;;;28.57;33.12;99259.44;10061574;29;20590;-72
2022/06/23 08:33:35;;;;;;;13.02;2.50;;;;;;;29.15;32.56;99208.41;10061989;29;20045;-73
2022/06/23 08:38:44;;;;;;;33.13;5.97;;;;;;;29.91;32.56;99219.72;10062035;29;20045;-73
2022/06/23 08:44:11;;;;;;;47.35;19.30;;;;;;;30.28;32.10;99271.41;10061379;29;20048;-73
2022/06/23 08:49:23;;;;;;;8.25;3.03;;;;;;;29.69;31.79;99261.75;10061553;29;20074;-73
2022/06/23 08:54:55;;;;;;;3.10;1.63;;;;;;;29.60;33.03;99254.63;10060670;29;20056;-72
2022/06/23 09:00:02;;;;;;;3.72;1.30;;;;;;;29.33;32.86;99249.13;10060688;29;20048;-72
2022/06/23 09:05:12;;;;;;;6.85;1.50;;;;;;;29.35;33.03;99273.44;10060044;29;20069;-71
2022/06/23 09:10:28;;;;;;;4.05;1.52;;;;;;;28.77;32.98;99182.38;10060226;29;20060;-72
2022/06/23 09:15:37;;;;;;;4.45;1.50;;;;;;;29.18;33.01;99271.47;10060244;29;20550;-72
2022/06/23 09:21:03;;;;;;;3.42;1.40;;;;;;;29.62;32.56;99268.84;10059402;29;20041;-71
2022/06/23 09:26:22;;;;;;;7.53;1.40;;;;;;;29.06;32.35;99085.34;10059723;29;20046;-72
2022/06/23 09:31:31;;;;;;;4.00;1.65;;;;;;;30.08;30.98;99272.84;10060034;29;20037;-72
2022/06/23 09:37:28;;;;;;;8.07;1.73;;;;;;;29.86;32.76;99271.09;10058834;29;20189;-71
2022/06/23 09:42:53;;;;;;;6.18;2.15;;;;;;;29.29;32.70;99269.25;10082867;29;20060;-72
2022/06/23 09:48:18;;;;;;;3.45;1.30;;;;;;;29.08;33.09;99263.56;10089825;29;20052;-72
2022/06/23 09:53:32;;;;;;;7.32;1.70;;;;;;;28.07;32.96;99077.50;10092141;29;20510;-72
2022/06/23 09:58:51;;;;;;;6.85;1.90;;;;;;;29.50;32.33;99262.03;10091434;29;20048;-72
2022/06/23 10:03:54;;;;;;;11.13;2.85;;;;;;;29.52;32.19;99185.88;10090498;29;20057;-73
2022/06/23 10:09:10;;;;;;;8.45;1.92;;;;;;;29.95;32.37;99239.84;10092822;29;20045;-72
2022/06/23 10:14:18;;;;;;;14.25;2.30;;;;;;;30.17;32.75;99271.72;10093811;29;20040;-72
2022/06/23 10:19:21;;;;;;;47.70;19.73;;;;;;;29.46;32.97;99167.22;10097349;29;20049;-73
2022/06/23 10:24:51;;;;;;;9.48;3.55;;;;;;;30.12;33.07;99277.34;10097434;29;20499;-72
2022/06/23 10:30:18;;;;;;;5.63;2.28;;;;;;;29.99;33.57;99281.88;10096378;29;20037;-73
2022/06/23 10:35:37;;;;;;;8.63;1.63;;;;;;;30.01;33.09;99282.38;10096057;29;20100;-72
2022/06/23 10:40:53;;;;;;;11.13;1.92;;;;;;;30.20;31.68;99289.44;10096459;29;20040;-72
2022/06/23 10:46:01;;;;;;;27.85;2.90;;;;;;;29.97;33.19;99256.75;10096142;29;20056;-72
2022/06/23 10:51:13;;;;;;;7.13;1.95;;;;;;;29.79;33.32;99255.94;10094723;29;20123;-73
2022/06/23 10:56:38;;;;;;;6.33;2.17;;;;;;;30.14;32.77;99275.09;10095433;29;20044;-72
2022/06/23 11:02:08;;;;;;;7.97;1.52;;;;;;;29.91;32.36;99169.63;10095252;29;20320;-72
2022/06/23 11:07:20;;;;;;;3.92;1.45;;;;;;;30.97;30.63;99268.47;10096144;29;20151;-72
2022/06/23 11:12:44;;;;;;;9.15;2.17;;;;;;;31.45;30.72;99275.47;10091136;29;20040;-72
2022/06/23 11:18:09;;;;;;;5.32;1.70;;;;;;;31.49;30.45;99273.66;10092866;29;20052;-72
2022/06/23 11:23:26;;;;;;;4.80;1.63;;;;;;;30.88;31.27;99270.44;10057258;29;20045;-73
2022/06/23 11:28:56;;;;;;;11.45;2.70;;;;;;;31.22;31.10;99271.41;10057007;29;20068;-72
2022/06/23 11:34:28;;;;;;;9.23;3.15;;;;;;;31.52;30.55;99258.47;10083497;29;20187;-73
2022/06/23 11:39:40;;;;;;;;;;;;;;;31.97;30.75;99255.06;10088409;29;20056;-73
2022/06/23 11:45:05;;;;;;;8.13;1.80;;;;;;;30.72;29.85;99130.31;10094429;29;19920;-72
2022/06/23 11:50:11;;;;;;;4.18;1.52;;;;;;;31.31;30.33;99237.28;10094895;29;20092;-72
2022/06/23 11:55:24;;;;;;;8.45;1.90;;;;;;;31.60;31.45;99235.66;10091619;29;20092;-73
2022/06/23 12:00:37;;;;;;;4.25;1.50;;;;;;;31.43;30.71;99222.84;10092139;29;20041;-72
2022/06/23 12:05:52;;;;;;;9.65;3.10;;;;;;;31.12;30.68;99188.34;10102145;29;20065;-73
2022/06/23 12:10:53;;;;;;;4.70;1.98;;;;;;;30.46;31.12;99155.16;10097713;29;20037;-71
2022/06/23 12:15:55;;;;;;;8.70;1.65;;;;;;;30.46;31.71;99216.25;10101071;29;20445;-72
2022/06/23 12:21:19;;;;;;;4.75;1.50;;;;;;;30.16;31.56;99223.53;10101000;29;20041;-71
2022/06/23 12:26:30;;;;;;;20.25;1.70;;;;;;;29.93;31.37;99231.16;10097809;29;20048;-72
2022/06/23 12:31:48;;;;;;;6.75;1.80;;;;;;;29.88;32.11;99247.72;10101279;29;20144;-72
2022/06/23 12:36:48;;;;;;;38.05;4.57;;;;;;;29.67;33.42;99257.72;10099282;29;20044;-73
2022/06/23 12:41:57;;;;;;;6.38;1.40;;;;;;;29.29;32.93;99231.75;10098195;29;20072;-73
2022/06/23 12:47:11;;;;;;;15.18;2.47;;;;;;;29.27;33.64;99277.75;10099180;29;20052;-73
2022/06/23 12:52:49;;;;;;;8.73;1.88;;;;;;;28.06;33.91;99114.13;10095972;29;20076;-74
2022/06/23 12:58:10;;;;;;;15.95;2.83;;;;;;;28.91;33.74;99283.41;10095834;29;20050;-74
2022/06/23 13:03:24;;;;;;;9.70;2.00;;;;;;;28.83;34.05;99282.25;10089005;29;20470;-73
2022/06/23 13:08:58;;;;;;;6.03;1.65;;;;;;;28.63;33.59;99252.75;10097657;29;20057;-73
2022/06/23 13:14:11;;;;;;;13.18;2.03;;;;;;;28.72;33.72;99280.09;10095747;29;20052;-74
2022/06/23 13:19:42;;;;;;;12.88;3.65;;;;;;;28.62;33.92;99273.78;10095675;29;20049;-73
2022/06/23 13:24:44;;;;;;;9.77;2.92;;;;;;;28.29;34.48;99245.13;10095948;29;20094;-74
2022/06/23 13:29:47;;;;;;;9.63;2.65;;;;;;;28.51;34.37;99269.72;10098461;29;20101;-74
2022/06/23 13:35:09;;;;;;;17.92;2.55;;;;;;;27.97;34.27;99170.56;10095620;29;20048;-74
2022/06/23 13:40:37;;;;;;;8.23;1.90;;;;;;;28.13;33.92;99184.66;10094246;29;20037;-73
2022/06/23 13:46:10;;;;;;;11.10;2.05;;;;;;;28.54;34.11;99265.53;10096824;29;20045;-74
2022/06/23 13:51:34;;;;;;;14.82;2.95;;;;;;;28.15;35.20;99248.75;10078436;29;20052;-73
2022/06/23 13:56:37;;;;;;;8.95;2.60;;;;;;;28.24;34.65;99328.00;10090061;29;20072;-74
2022/06/23 14:01:56;;;;;;;;;;;;;;;28.05;35.99;99401.88;10091800;29;20072;-73
2022/06/23 14:07:14;;;;;;;104.20;7.65;;;;;;;24.48;44.60;99272.03;10096072;29;20412;-71
2022/06/23 14:12:43;;;;;;;26.63;2.42;;;;;;;23.26;48.15;99396.38;10090158;29;20055;-79
2022/06/23 14:17:53;;;;;;;18.90;1.95;;;;;;;22.10;53.69;99374.38;10060243;29;20143;-76
2022/06/23 14:23:01;;;;;;;7.80;1.02;;;;;;;20.08;61.30;99449.94;10095132;29;20044;-80
2022/06/23 14:28:24;;;;;;;12.85;1.40;;;;;;;18.72;72.59;99470.00;10070803;29;20049;-81
2022/06/23 14:33:31;;;;;;;4.60;1.45;;;;;;;17.73;74.66;99433.41;10068712;29;20052;-67
2022/06/23 14:38:51;;;;;;;7.72;0.90;;;;;;;17.70;79.06;99538.63;10096086;29;20060;-67
2022/06/23 14:44:11;;;;;;;3.80;0.80;;;;;;;16.92;80.83;99480.69;10093307;29;20041;-69
2022/06/23 14:49:43;;;;;;;8.95;0.93;;;;;;;17.68;82.72;99628.56;10091534;29;20063;-68
2022/06/23 14:55:09;;;;;;;5.60;0.82;;;;;;;17.82;82.45;99634.56;10087527;29;20053;-69
2022/06/23 15:00:12;;;;;;;3.78;0.70;;;;;;;17.79;78.36;99652.78;10088513;29;20052;-71
2022/06/23 15:05:37;;;;;;;1.83;0.60;;;;;;;17.82;84.17;99643.44;10088462;29;20421;-68
2022/06/23 15:11:04;;;;;;;7.07;0.98;;;;;;;17.76;83.56;99636.28;10104367;29;20564;-68
2022/06/23 15:16:14;;;;;;;3.00;0.80;;;;;;;17.63;84.90;99640.00;10086540;29;20067;-67
2022/06/23 15:27:38;;;;;;;6.70;1.40;;;;;;;17.84;86.96;99687.03;10087353;29;20615;-67
2022/06/23 15:33:03;;;;;;;3.17;0.75;;;;;;;17.07;88.00;99579.53;10106754;29;20049;-68
2022/06/23 15:38:42;;;;;;;2.38;0.80;;;;;;;17.69;87.89;99702.72;10093307;29;20053;-70
2022/06/23 15:44:24;;;;;;;4.15;0.80;;;;;;;17.57;92.04;99714.25;10138516;29;20145;-68
2022/06/23 15:49:40;;;;;;;3.15;0.63;;;;;;;17.41;90.57;99719.44;10099284;29;20088;-68
2022/06/23 15:54:55;;;;;;;4.50;0.60;;;;;;;17.17;92.10;99722.06;10102682;29;20048;-68
2022/06/23 16:00:29;;;;;;;7.90;1.27;;;;;;;17.22;94.88;99735.59;10101438;29;20053;-68
2022/06/23 16:05:32;;;;;;;5.68;1.13;;;;;;;17.17;90.69;99737.31;10101780;29;20084;-68
2022/06/23 16:10:54;;;;;;;4.40;0.70;;;;;;;17.22;93.91;99718.69;10102312;29;20105;-69
2022/06/23 16:16:01;;;;;;;1.88;0.60;;;;;;;16.89;92.16;99685.84;10101339;29;20041;-68
2022/06/23 16:21:07;;;;;;;3.33;0.80;;;;;;;17.07;93.22;99701.09;10096526;29;20064;-73
2022/06/23 16:26:57;;;;;;;2.00;0.70;;;;;;;17.33;94.75;99705.31;10139174;29;20524;-74
2022/06/23 16:32:22;;;;;;;5.20;0.85;;;;;;;17.26;94.62;99685.81;10096096;29;20063;-75
2022/06/23 16:37:33;;;;;;;2.35;0.65;;;;;;;16.65;92.71;99600.91;10099624;29;20131;-74
2022/06/23 16:42:51;;;;;;;1.13;0.47;;;;;;;17.21;92.83;99690.22;10111725;29;20116;-75
2022/06/23 16:48:01;;;;;;;4.47;0.68;;;;;;;17.46;92.58;99723.09;10139302;29;20048;-76
2022/06/23 16:53:16;;;;;;;1.80;0.50;;;;;;;17.50;92.97;99751.13;10134554;29;20049;-77
2022/06/23 16:58:31;;;;;;;1.70;0.70;;;;;;;17.48;93.20;99744.34;10132399;29;20077;-76
2022/06/23 17:03:46;;;;;;;6.22;0.60;;;;;;;17.53;93.04;99774.84;10137593;29;20080;-79
2022/06/23 17:09:36;;;;;;;1.80;0.50;;;;;;;17.58;94.06;99784.91;10135708;29;20055;-76
2022/06/23 17:14:55;;;;;;;1.55;0.50;;;;;;;17.50;94.42;99779.84;10129098;29;20060;-82
2022/06/23 17:19:59;;;;;;;6.47;0.88;;;;;;;17.36;93.67;99781.06;10138718;29;20044;-80
2022/06/23 17:25:04;;;;;;;4.82;1.20;;;;;;;17.28;94.63;99783.00;10087323;29;20069;-77
2022/06/23 17:30:15;;;;;;;1.80;0.63;;;;;;;17.20;95.05;99769.91;10096679;29;20443;-79
2022/06/23 17:35:28;;;;;;;4.70;1.00;;;;;;;17.01;99.40;99789.75;10096478;29;20048;-74
2022/06/23 17:46:09;;;;;;;2.33;1.02;;;;;;;16.26;99.33;99686.09;10092314;29;20057;-81
2022/06/23 17:51:20;;;;;;;1.98;0.77;;;;;;;16.85;98.04;99834.91;10066772;29;20384;-78
2022/06/23 17:56:21;;;;;;;4.10;0.80;;;;;;;16.18;97.19;99774.81;10059093;29;20487;-79
2022/06/23 18:01:22;;;;;;;1.90;0.90;;;;;;;16.78;97.79;99928.03;10058847;29;20046;-75
2022/06/23 18:06:27;;;;;;;3.17;0.98;;;;;;;16.66;98.86;99933.25;10094181;29;20542;-75
2022/06/23 18:11:58;;;;;;;3.20;1.02;;;;;;;16.54;100.00;99900.13;10096333;29;20085;-77
2022/06/23 18:17:12;;;;;;;4.43;0.90;;;;;;;16.41;100.00;99879.56;10089979;29;20048;-75
2022/06/23 18:22:47;;;;;;;3.03;1.10;;;;;;;16.17;100.00;99802.66;10117110;29;20036;-76
2022/06/23 18:28:08;;;;;;;9.68;4.40;;;;;;;16.43;100.00;99853.38;10093725;29;20057;-86
2022/06/23 18:33:22;;;;;;;8.55;1.50;;;;;;;16.37;100.00;99905.19;10089031;29;20057;-83
2022/06/23 18:38:29;;;;;;;;;;;;;;;16.31;100.00;99846.28;10093106;29;20577;-75
2022/06/23 18:43:52;;;;;;;5.45;1.10;;;;;;;15.79;100.00;99800.84;10093119;29;19954;-77
2022/06/23 18:49:03;;;;;;;5.35;2.17;;;;;;;15.46;100.00;99742.91;10095072;29;20056;-85
2022/06/23 18:54:28;;;;;;;4.13;1.40;;;;;;;15.49;100.00;99763.09;10089603;29;20088;-77
2022/06/23 18:59:37;;;;;;;3.55;1.60;;;;;;;15.62;100.00;99811.22;10092128;29;20170;-77
2022/06/23 19:05:01;;;;;;;4.80;1.52;;;;;;;15.68;100.00;99798.88;10096206;29;20068;-77
2022/06/23 19:10:06;;;;;;;6.88;1.27;;;;;;;15.71;100.00;99801.13;10095519;29;20137;-74
2022/06/23 19:15:33;;;;;;;2.90;1.27;;;;;;;15.98;100.00;99820.53;10095017;29;20060;-79
2022/06/23 19:20:34;;;;;;;3.50;1.42;;;;;;;15.50;100.00;99749.50;10088365;29;20081;-79
2022/06/23 19:25:46;;;;;;;4.40;1.20;;;;;;;16.06;100.00;99836.31;10091077;29;20139;-80
2022/06/23 19:31:22;;;;;;;4.20;1.30;;;;;;;16.00;100.00;99844.41;10103909;29;20084;-78
2022/06/23 19:36:32;;;;;;;6.80;1.20;;;;;;;16.07;100.00;99861.28;10064453;29;20490;-78
2022/06/23 19:41:42;;;;;;;4.78;1.20;;;;;;;16.18;100.00;99833.75;10108257;29;20052;-78
2022/06/23 19:46:52;;;;;;;3.50;0.98;;;;;;;15.27;100.00;99685.00;10094720;29;20045;-79
2022/06/23 19:51:56;;;;;;;4.40;1.40;;;;;;;16.11;100.00;99801.66;10094206;29;20383;-78
2022/06/23 19:57:19;;;;;;;3.03;1.10;;;;;;;16.35;100.00;99821.47;10094197;29;20127;-77
2022/06/23 20:02:38;;;;;;;4.00;0.90;;;;;;;16.32;100.00;99823.78;10083284;29;20403;-78
2022/06/23 20:07:53;;;;;;;7.18;2.10;;;;;;;16.22;100.00;99793.97;10094298;29;20045;-77
2022/06/23 20:13:21;;;;;;;2.28;1.00;;;;;;;14.82;100.00;99552.13;10094358;29;20565;-79
2022/06/23 20:18:40;;;;;;;2.25;0.80;;;;;;;16.25;100.00;99777.47;10092967;29;20109;-78
2022/06/23 20:24:13;;;;;;;2.33;0.90;;;;;;;16.22;100.00;99777.91;10099123;29;20404;-77
2022/06/23 20:29:55;;;;;;;1.30;0.67;;;;;;;16.28;100.00;99772.47;10100871;29;20136;-78
2022/06/23 20:35:32;;;;;;;3.65;1.10;;;;;;;16.33;100.00;99777.16;10058181;29;20046;-78
2022/06/23 20:40:41;;;;;;;2.85;1.10;;;;;;;16.29;100.00;99773.28;10096228;29;20053;-79
2022/06/23 20:46:03;;;;;;;2.30;1.00;;;;;;;16.36;100.00;99779.41;10100196;29;20051;-77
2022/06/23 20:51:30;;;;;;;2.08;1.10;;;;;;;16.51;100.00;99771.88;10099180;29;20037;-77
2022/06/23 20:56:38;;;;;;;2.55;1.35;;;;;;;16.60;100.00;99777.75;10100061;29;20089;-77
2022/06/23 21:01:57;;;;;;;3.30;1.30;;;;;;;16.73;100.00;99766.91;10100227;29;20049;-78
2022/06/23 21:07:21;;;;;;;4.13;1.35;;;;;;;16.75;100.00;99778.22;10114300;29;20061;-78
2022/06/23 21:12:24;;;;;;;4.35;1.38;;;;;;;16.54;100.00;99738.41;10099278;29;20045;-78
2022/06/23 21:17:39;;;;;;;2.05;1.38;;;;;;;15.83;100.00;99611.09;10099228;29;20051;-78
2022/06/23 21:22:54;;;;;;;2.47;1.10;;;;;;;16.66;100.00;99744.66;10099584;29;20045;-78
2022/06/23 21:28:01;;;;;;;11.32;1.67;;;;;;;15.95;100.00;99649.53;10098968;29;20053;-78
2022/06/23 21:33:10;;;;;;;7.18;1.40;;;;;;;16.50;100.00;99764.03;10098211;29;20045;-78
2022/06/23 21:38:17;;;;;;;2.25;1.20;;;;;;;16.27;100.00;99737.84;10098709;29;20037;-77
2022/06/23 21:43:27;;;;;;;3.92;1.50;;;;;;;16.44;100.00;99774.59;10112904;29;20040;-77
2022/06/23 21:48:39;;;;;;;2.28;1.25;;;;;;;16.58;100.00;99785.22;10098413;29;20063;-78
2022/06/23 21:53:50;;;;;;;3.40;1.33;;;;;;;16.56;100.00;99787.28;10098125;29;20041;-77
2022/06/23 21:59:22;;;;;;;3.97;1.38;;;;;;;16.56;100.00;99780.06;10098602;29;20405;-77
2022/06/23 22:04:39;;;;;;;5.85;1.73;;;;;;;16.52;100.00;99799.50;10098540;29;20079;-76
2022/06/23 22:09:51;;;;;;;15.13;2.25;;;;;;;16.36;100.00;99785.63;10098337;29;20219;-77
2022/06/23 22:15:38;;;;;;;7.28;2.42;;;;;;;16.35;100.00;99797.34;10097958;29;20063;-75
2022/06/23 22:20:55;;;;;;;7.75;2.15;;;;;;;16.24;100.00;99779.28;10097470;29;20044;-77
2022/06/23 22:26:29;;;;;;;5.10;2.10;;;;;;;16.43;100.00;99805.13;10111973;29;20105;-77
2022/06/23 22:31:52;;;;;;;4.75;2.08;;;;;;;16.50;100.00;99818.47;10097840;29;20485;-78
2022/06/23 22:36:53;;;;;;;3.60;1.60;;;;;;;16.36;100.00;99812.41;10097611;29;20520;-77
2022/06/23 22:41:54;;;;;;;3.20;1.50;;;;;;;16.27;100.00;99819.06;10096136;29;20073;-78
2022/06/23 22:47:24;;;;;;;5.05;1.60;;;;;;;16.31;100.00;99822.97;10097150;29;20535;-78
2022/06/23 22:52:29;;;;;;;3.03;1.50;;;;;;;16.22;100.00;99820.78;10093199;29;20049;-78
2022/06/23 22:57:34;;;;;;;7.28;2.10;;;;;;;16.14;100.00;99808.44;10095974;29;20518;-77
2022/06/23 23:02:34;;;;;;;2.67;1.48;;;;;;;16.11;100.00;99808.88;10095731;29;20524;-78
2022/06/23 23:07:38;;;;;;;3.75;1.70;;;;;;;15.89;100.00;99776.28;10096065;29;20075;-78
2022/06/23 23:12:58;;;;;;;7.80;2.00;;;;;;;15.95;100.00;99783.44;10096097;29;20052;-78
2022/06/23 23:18:18;;;;;;;4.72;1.70;;;;;;;16.01;100.00;99805.88;10096225;29;20056;-77
2022/06/23 23:23:33;;;;;;;9.98;1.98;;;;;;;15.93;100.00;99810.44;10095490;29;20041;-78
2022/06/23 23:28:34;;;;;;;2.78;1.50;;;;;;;15.70;100.00;99775.34;10095331;29;20573;-78
2022/06/23 23:33:38;;;;;;;6.40;2.10;;;;;;;15.73;100.00;99785.63;10095008;29;20128;-79
2022/06/23 23:38:39;;;;;;;7.47;1.98;;;;;;;15.63;100.00;99785.25;10109336;29;20048;-78
2022/06/23 23:43:39;;;;;;;3.53;1.40;;;;;;;15.61;100.00;99780.09;10094562;29;20041;-78
2022/06/23 23:48:41;;;;;;;5.88;2.08;;;;;;;15.57;100.00;99773.56;10109183;29;20045;-77
2022/06/23 23:53:41;;;;;;;5.45;2.28;;;;;;;15.19;100.00;99714.66;10095795;29;20049;-78
2022/06/23 23:58:42;;;;;;;4.63;2.03;;;;;;;15.31;100.00;99718.28;10100106;29;20513;-78
